Traverse City, MI

9:38 AM EST on February 10, 2016 (GMT -0500)
Lake Leelanau | | Change Station
CLOSE
Current Station
Personal Weather Station
Location: Traverse City, MI
Elevation: 636 ft
Nearby Weather Stations
Active Advisory: Winter Storm Warning Active Notice: Local Storm Report

Elev 636 ft 44.89 °N, 85.69 °W | Updated 9 minutes ago

Overcast
Overcast
16.3 °F
Feels Like 10 °F
N
4.0
Wind Variable Wind from NE
Gusts 13.0 mph

Today
High -- | Low -- °F
--% Chance of Precip.
Yesterday
High -- | Low -- °F
Precip. -- in
Pressure 29.86 in
Visibility 9.0 miles
Clouds Scattered Clouds 3400 ft
Mostly Cloudy 4700 ft
Overcast 5500 ft
Windchill 10 °F
Dew Point 7 °F
Humidity 68%
Rainfall 0.00 in
Snow Depth Not available.
7:51 AM 6:03 PM
Waxing Crescent, 5% visible
METAR KTVC 101353Z 36012G21KT 9SM -SN SCT034 BKN047 OVC055 M08/M15 A2983 RMK AO2 SLP111 P0000 T10831150
Pressure 29.86 in
Visibility 9.0 miles
Clouds Scattered Clouds 3400 ft
Mostly Cloudy 4700 ft
Overcast 5500 ft
Windchill 10 °F
Dew Point 7 °F
Humidity 68%
Rainfall 0.00 in
Snow Depth Not available.
7:51 AM 6:03 PM
Waxing Crescent, 5% visible
METAR KTVC 101353Z 36012G21KT 9SM -SN SCT034 BKN047 OVC055 M08/M15 A2983 RMK AO2 SLP111 P0000 T10831150

10-Day Weather Forecast

Almanac

Astronomy

Feb. 10, 2016 Rise Set
Actual Time
Civil Twilight
Nautical Twilight
Astronomical Twilight
Moon
Length of Visible Light
Length of Day
Tomorrow will be .
, % of the Moon is Illuminated

Today's Extremes

State Highs State Lows

Community

WunderPhotos

Upload Photos

1,891,855 photos uploaded!

WunderBlog® & News

Nearby

Air Quality

  Air Quality AQ Index Pollutant
Not available.

Snow Depth

Station Depth Elevation

Earthquake Activity

City Distance Mag. Time & Date
Minimum magnitude displayed is 2.5.

Coastal Water Temperatures

Place Temperature

Stations

Nearby Weather Stations

Station Location Temp. Windchill Dew Point Humidity Wind Precip. Elev Updated Type
                   

Watches & Warnings

Winter Storm Warning
Issued: 8:42 AM EST Feb. 10, 2016 – National Weather Service

... Winter Storm Warning remains in effect until 6 PM EST this
evening...

* periods of heavy lake effect snow showers will persist today.

* The heaviest snowfall rates will occur this morning.

* Additional snow accumulations today of 3 to 5 inches... with
locally higher amounts possible.

* Very low visibilities in falling and blowing snow.

* Plan on difficult driving conditions.

Precautionary/preparedness actions...

A Winter Storm Warning for snow means severe winter weather
conditions are occurring. If you must travel... keep an extra
flashlight... food... and water in your vehicle in case of an
emergency. For the latest Road conditions... go to the mdot
website at Michigan.Gov.